createdAt,value
2023-02-27T00:01:36.412Z,2.38
2023-02-27T00:04:03.443Z,3.00
2023-02-27T00:06:34.070Z,3.17
2023-02-27T00:09:04.356Z,2.80
2023-02-27T00:11:31.404Z,3.25
2023-02-27T00:14:03.357Z,2.80
2023-02-27T00:16:32.365Z,3.13
2023-02-27T00:19:01.356Z,3.53
2023-02-27T00:21:28.365Z,3.13
2023-02-27T00:23:55.555Z,3.80
2023-02-27T00:26:32.816Z,3.15
2023-02-27T00:28:59.829Z,3.20
2023-02-27T00:31:27.036Z,3.78
2023-02-27T00:33:54.312Z,3.53
2023-02-27T00:36:21.347Z,3.53
2023-02-27T00:38:48.253Z,3.58
2023-02-27T00:43:47.242Z,3.17
2023-02-27T00:46:14.346Z,3.63
2023-02-27T00:48:41.318Z,3.20
2023-02-27T00:51:10.038Z,3.33
2023-02-27T00:53:36.862Z,4.32
2023-02-27T00:56:03.840Z,4.13
2023-02-27T00:58:30.733Z,4.20
2023-02-27T01:00:59.908Z,4.13
2023-02-27T01:03:28.851Z,4.20
2023-02-27T01:05:55.801Z,4.20
2023-02-27T01:08:26.986Z,5.10
2023-02-27T01:13:23.654Z,7.40
2023-02-27T01:15:50.874Z,7.47
2023-02-27T01:18:17.944Z,5.68
2023-02-27T01:20:44.904Z,5.68
2023-02-27T01:23:13.304Z,5.47
2023-02-27T01:28:09.993Z,5.03
2023-02-27T01:30:37.011Z,5.22
2023-02-27T01:33:04.449Z,4.18
2023-02-27T01:35:31.389Z,4.20
2023-02-27T01:38:00.143Z,4.80
2023-02-27T01:40:41.778Z,4.95
2023-02-27T01:43:15.208Z,4.80
2023-02-27T01:45:44.274Z,4.15
2023-02-27T01:48:26.098Z,3.88
2023-02-27T01:50:58.996Z,4.68
2023-02-27T01:53:28.844Z,6.30
2023-02-27T01:56:00.901Z,5.82
2023-02-27T01:58:27.937Z,7.03
2023-02-27T02:03:27.145Z,4.85
2023-02-27T02:06:07.530Z,5.38
2023-02-27T02:08:42.104Z,4.63
2023-02-27T02:11:10.760Z,3.88
2023-02-27T02:13:40.623Z,4.63
2023-02-27T02:16:20.397Z,4.50
2023-02-27T02:19:08.685Z,3.83
2023-02-27T02:22:05.187Z,3.72
2023-02-27T02:24:51.738Z,3.38
2023-02-27T02:27:19.148Z,3.78
2023-02-27T02:30:17.841Z,3.65
2023-02-27T02:33:05.881Z,3.53
2023-02-27T02:35:48.937Z,3.95
2023-02-27T02:38:57.150Z,3.50
2023-02-27T02:41:50.715Z,3.35
2023-02-27T02:44:46.789Z,3.45
2023-02-27T02:47:32.561Z,3.60
2023-02-27T02:50:08.487Z,5.05
2023-02-27T02:52:44.654Z,3.58
2023-02-27T02:55:32.270Z,4.38
2023-02-27T02:58:09.716Z,3.65
2023-02-27T03:00:44.701Z,4.20
2023-02-27T03:03:29.302Z,3.80
2023-02-27T03:06:02.429Z,3.38
2023-02-27T03:08:49.542Z,3.33
2023-02-27T03:11:16.477Z,3.38
2023-02-27T03:13:56.198Z,3.80
2023-02-27T03:16:43.794Z,3.55
2023-02-27T03:19:17.654Z,3.15
2023-02-27T03:21:55.692Z,3.97
2023-02-27T03:24:51.311Z,5.72
2023-02-27T03:29:57.541Z,5.45
2023-02-27T03:32:38.079Z,5.45
2023-02-27T03:35:10.965Z,4.80
2023-02-27T03:37:49.899Z,4.65
2023-02-27T03:43:07.215Z,7.00
2023-02-27T03:46:13.362Z,5.22
2023-02-27T03:48:44.867Z,5.88
2023-02-27T03:51:14.931Z,5.75
2023-02-27T03:54:35.019Z,7.60
2023-02-27T03:57:08.624Z,4.95
2023-02-27T03:59:38.128Z,5.63
2023-02-27T04:02:05.307Z,6.45
2023-02-27T04:04:36.330Z,6.95
2023-02-27T04:07:30.358Z,5.88
2023-02-27T04:10:38.834Z,4.70
2023-02-27T04:13:33.100Z,4.78
2023-02-27T04:16:07.188Z,4.07
2023-02-27T04:19:05.398Z,4.07
2023-02-27T04:21:42.260Z,6.07
2023-02-27T04:24:30.781Z,4.82
2023-02-27T04:27:11.706Z,10.85
2023-02-27T04:30:46.635Z,16.58
2023-02-27T04:33:37.030Z,10.15
2023-02-27T04:36:12.964Z,11.77
2023-02-27T04:38:47.601Z,10.07
2023-02-27T04:41:23.727Z,6.50
2023-02-27T04:43:53.712Z,6.88
2023-02-27T04:46:24.706Z,7.20
2023-02-27T04:48:59.201Z,7.28
2023-02-27T04:51:42.849Z,5.68
2023-02-27T04:54:18.512Z,4.82
2023-02-27T04:56:52.772Z,3.90
2023-02-27T04:59:26.128Z,3.78
2023-02-27T05:02:12.900Z,3.70
2023-02-27T05:04:44.066Z,3.45
2023-02-27T05:07:17.784Z,5.72
2023-02-27T05:09:55.376Z,4.38
2023-02-27T05:13:20.068Z,4.00
2023-02-27T05:16:14.523Z,3.70
2023-02-27T05:18:56.082Z,3.60
2023-02-27T05:21:41.419Z,3.50
2023-02-27T05:24:32.628Z,3.25
2023-02-27T05:29:50.754Z,3.45
2023-02-27T05:32:29.952Z,2.25
2023-02-27T05:35:00.039Z,2.40
2023-02-27T05:37:57.362Z,2.75
2023-02-27T05:40:35.283Z,3.67
2023-02-27T05:43:09.161Z,4.15
2023-02-27T05:45:50.140Z,4.10
2023-02-27T05:48:37.848Z,4.47
2023-02-27T05:51:07.980Z,4.25
2023-02-27T05:53:42.331Z,6.00
2023-02-27T05:56:14.072Z,6.03
2023-02-27T05:59:08.444Z,5.43
2023-02-27T06:01:35.660Z,6.07
2023-02-27T06:04:07.916Z,7.43
2023-02-27T06:06:37.740Z,7.78
2023-02-27T06:09:18.573Z,7.68
2023-02-27T06:15:19.524Z,6.03
2023-02-27T06:18:19.724Z,5.57
2023-02-27T06:20:47.385Z,4.07
2023-02-27T06:23:14.413Z,3.80
2023-02-27T06:28:14.361Z,4.53
2023-02-27T06:30:41.398Z,4.05
2023-02-27T06:35:38.558Z,6.22
2023-02-27T06:38:05.340Z,5.60
2023-02-27T06:40:32.915Z,4.65
2023-02-27T06:42:59.930Z,4.28
2023-02-27T06:45:26.735Z,3.72
2023-02-27T06:47:59.924Z,4.75
2023-02-27T06:50:28.653Z,4.22
2023-02-27T06:52:57.030Z,4.00
2023-02-27T06:55:28.847Z,4.47
2023-02-27T06:57:56.304Z,4.15
2023-02-27T07:00:24.638Z,4.70
2023-02-27T07:03:04.632Z,4.18
2023-02-27T07:05:32.783Z,3.80
2023-02-27T07:08:06.643Z,3.63
2023-02-27T07:10:35.900Z,4.28
2023-02-27T07:13:09.056Z,3.22
2023-02-27T07:15:38.301Z,3.53
2023-02-27T07:18:06.258Z,3.30
2023-02-27T07:23:44.615Z,2.88
2023-02-27T07:26:11.740Z,3.22
2023-02-27T07:31:05.737Z,2.53
2023-02-27T07:33:34.344Z,2.80
2023-02-27T07:36:08.584Z,2.67
2023-02-27T07:38:35.566Z,2.97
2023-02-27T07:41:04.392Z,2.50
2023-02-27T07:43:33.513Z,2.30
2023-02-27T07:46:00.633Z,3.10
2023-02-27T07:48:27.628Z,2.95
2023-02-27T07:53:24.664Z,2.90
2023-02-27T07:55:52.507Z,2.63
2023-02-27T07:58:20.063Z,2.88
2023-02-27T08:00:47.004Z,2.28
2023-02-27T08:03:13.960Z,2.22
2023-02-27T08:08:07.792Z,2.90
2023-02-27T08:10:35.382Z,2.88
2023-02-27T08:13:02.560Z,3.00
2023-02-27T08:15:29.810Z,2.88
2023-02-27T08:17:56.797Z,3.00
2023-02-27T08:20:24.791Z,2.38
2023-02-27T08:22:52.959Z,1.67
2023-02-27T08:25:21.589Z,2.80
2023-02-27T08:27:48.567Z,2.30
2023-02-27T08:30:17.269Z,3.10
2023-02-27T08:32:45.634Z,2.45
2023-02-27T08:35:12.906Z,2.30
2023-02-27T08:37:42.545Z,2.45
2023-02-27T08:40:11.526Z,2.25
2023-02-27T08:42:38.722Z,2.30
2023-02-27T08:45:08.509Z,2.60
2023-02-27T08:47:38.640Z,2.22
2023-02-27T08:50:07.504Z,2.47
2023-02-27T08:52:35.499Z,1.90
2023-02-27T08:55:07.028Z,1.88
2023-02-27T08:57:34.018Z,2.00
2023-02-27T09:00:01.475Z,1.85
2023-02-27T09:02:29.141Z,1.80
2023-02-27T09:05:01.190Z,1.67
2023-02-27T09:07:31.646Z,2.05
2023-02-27T09:09:58.605Z,2.05
2023-02-27T09:14:52.512Z,2.28
2023-02-27T09:19:46.471Z,2.17
2023-02-27T09:22:18.360Z,1.90
2023-02-27T09:24:51.486Z,2.35
2023-02-27T09:27:24.173Z,2.50
2023-02-27T09:29:57.998Z,1.75
2023-02-27T09:32:27.473Z,2.30
2023-02-27T09:34:56.907Z,2.00
2023-02-27T09:37:30.020Z,1.45
2023-02-27T09:39:57.109Z,1.92
2023-02-27T09:45:05.778Z,1.67
2023-02-27T09:47:40.906Z,1.80
2023-02-27T09:50:40.312Z,2.00
2023-02-27T09:53:16.975Z,2.13
2023-02-27T09:55:46.130Z,2.45
2023-02-27T09:58:45.842Z,1.90
2023-02-27T10:01:28.806Z,1.77
2023-02-27T10:04:19.461Z,1.98
2023-02-27T10:06:49.918Z,1.40
2023-02-27T10:09:45.608Z,1.92
2023-02-27T10:12:34.601Z,1.20
2023-02-27T10:15:11.057Z,1.67
2023-02-27T10:18:16.871Z,1.13
2023-02-27T10:20:56.492Z,1.20
2023-02-27T10:23:54.061Z,1.10
2023-02-27T10:26:28.252Z,1.10
2023-02-27T10:29:03.067Z,1.00
2023-02-27T10:31:34.520Z,1.00
2023-02-27T10:34:02.302Z,1.38
2023-02-27T10:36:34.246Z,1.00
2023-02-27T10:39:06.938Z,0.60
2023-02-27T10:41:38.099Z,1.00
2023-02-27T10:44:06.610Z,1.00
2023-02-27T10:46:38.228Z,0.95
2023-02-27T10:49:15.321Z,1.10
2023-02-27T10:51:44.602Z,1.10
2023-02-27T10:54:25.929Z,0.88
2023-02-27T10:56:55.846Z,1.40
2023-02-27T10:59:24.512Z,1.33
2023-02-27T11:01:55.601Z,0.95
2023-02-27T11:04:35.484Z,0.90
2023-02-27T11:07:10.646Z,0.88
2023-02-27T11:09:38.045Z,0.95
2023-02-27T11:12:26.314Z,1.00
2023-02-27T11:14:57.018Z,0.73
2023-02-27T11:17:30.290Z,1.10
2023-02-27T11:20:01.351Z,0.60
2023-02-27T11:22:31.291Z,0.90
2023-02-27T11:25:25.812Z,1.00
2023-02-27T11:28:11.731Z,1.00
2023-02-27T11:30:38.732Z,1.27
2023-02-27T11:33:18.906Z,0.93
2023-02-27T11:35:57.177Z,1.10
2023-02-27T11:38:30.514Z,1.02
2023-02-27T11:40:59.075Z,1.10
2023-02-27T11:43:33.613Z,1.00
2023-02-27T11:46:47.894Z,1.40
2023-02-27T11:49:02.575Z,1.40
2023-02-27T11:51:51.008Z,0.90
2023-02-27T11:54:26.509Z,1.35
2023-02-27T11:57:14.712Z,1.10
2023-02-27T12:00:02.291Z,1.05
2023-02-27T12:02:53.001Z,0.88
2023-02-27T12:05:28.415Z,0.93
2023-02-27T12:08:02.023Z,1.13
2023-02-27T12:10:46.370Z,1.15
2023-02-27T12:13:21.797Z,0.75
2023-02-27T12:16:09.658Z,0.75
2023-02-27T12:18:53.849Z,0.80
2023-02-27T12:21:28.700Z,1.05
2023-02-27T12:24:08.558Z,0.98
2023-02-27T12:26:42.542Z,0.93
2023-02-27T12:29:23.611Z,0.90
2023-02-27T12:31:58.766Z,1.02
2023-02-27T12:34:38.468Z,1.30
2023-02-27T12:37:11.686Z,1.00
2023-02-27T12:39:40.396Z,0.98
2023-02-27T12:42:18.412Z,1.20
2023-02-27T12:45:03.281Z,1.40
2023-02-27T12:48:00.570Z,0.93
2023-02-27T12:50:43.023Z,1.00
2023-02-27T12:53:43.008Z,0.98
2023-02-27T12:56:17.366Z,1.20
2023-02-27T12:59:09.939Z,1.23
2023-02-27T13:02:22.002Z,0.75
2023-02-27T13:05:09.666Z,0.95
2023-02-27T13:08:06.833Z,0.98
2023-02-27T13:10:50.481Z,1.23
2023-02-27T13:13:34.642Z,1.20
2023-02-27T13:16:44.781Z,1.00
2023-02-27T13:19:19.608Z,1.17
2023-02-27T13:21:55.208Z,1.15
2023-02-27T13:24:26.779Z,1.48
2023-02-27T13:27:19.497Z,1.17
2023-02-27T13:30:08.407Z,1.30
2023-02-27T13:32:49.192Z,1.10
2023-02-27T13:35:46.690Z,1.42
2023-02-27T13:38:43.498Z,2.20
2023-02-27T13:41:36.230Z,1.27
2023-02-27T13:44:21.739Z,0.80
2023-02-27T13:46:53.769Z,1.10
2023-02-27T13:49:29.554Z,0.90
2023-02-27T13:52:02.170Z,1.08
2023-02-27T13:54:35.700Z,1.33
2023-02-27T13:57:14.289Z,1.20
2023-02-27T13:59:44.583Z,1.33
2023-02-27T14:02:11.544Z,1.23
2023-02-27T14:04:51.527Z,1.40
2023-02-27T14:07:24.401Z,1.38
2023-02-27T14:10:18.605Z,1.08
2023-02-27T14:12:46.743Z,1.33
2023-02-27T14:15:29.126Z,2.30
2023-02-27T14:18:12.404Z,1.70
2023-02-27T14:20:42.366Z,1.15
2023-02-27T14:23:15.478Z,1.58
2023-02-27T14:26:18.925Z,1.50
2023-02-27T14:28:57.080Z,1.02
2023-02-27T14:31:31.351Z,1.33
2023-02-27T14:34:06.028Z,1.40
2023-02-27T14:36:40.949Z,1.50
2023-02-27T14:39:40.716Z,1.48
2023-02-27T14:42:56.128Z,1.58
2023-02-27T14:45:31.300Z,1.60
2023-02-27T14:48:00.609Z,1.85
2023-02-27T14:50:40.498Z,2.35
2023-02-27T14:53:22.545Z,2.35
2023-02-27T14:56:05.358Z,2.10
2023-02-27T14:58:32.674Z,1.73
2023-02-27T15:01:04.640Z,1.25
2023-02-27T15:03:57.900Z,1.30
2023-02-27T15:06:40.906Z,1.58
2023-02-27T15:09:08.335Z,1.20
2023-02-27T15:11:42.026Z,1.52
2023-02-27T15:14:21.301Z,1.45
2023-02-27T15:16:48.178Z,1.33
2023-02-27T15:19:19.316Z,1.55
2023-02-27T15:21:51.907Z,1.70
2023-02-27T15:24:31.412Z,1.45
2023-02-27T15:27:08.633Z,1.35
2023-02-27T15:29:45.844Z,1.70
2023-02-27T15:32:21.550Z,1.85
2023-02-27T15:34:51.766Z,1.48
2023-02-27T15:37:38.472Z,1.70
2023-02-27T15:40:09.980Z,1.63
2023-02-27T15:42:37.493Z,1.42
2023-02-27T15:45:07.180Z,2.30
2023-02-27T15:47:34.530Z,1.80
2023-02-27T15:50:11.239Z,1.58
2023-02-27T15:52:54.313Z,1.92
2023-02-27T15:55:45.374Z,1.90
2023-02-27T15:58:33.051Z,1.50
2023-02-27T16:01:09.765Z,1.88
2023-02-27T16:03:43.441Z,1.38
2023-02-27T16:06:16.062Z,1.70
2023-02-27T16:08:54.603Z,1.92
2023-02-27T16:11:23.981Z,1.73
2023-02-27T16:13:52.224Z,1.80
2023-02-27T16:16:22.395Z,1.40
2023-02-27T16:18:52.051Z,2.00
2023-02-27T16:21:28.819Z,1.85
2023-02-27T16:24:22.006Z,1.90
2023-02-27T16:26:57.660Z,1.60
2023-02-27T16:29:34.711Z,1.63
2023-02-27T16:32:02.621Z,2.08
2023-02-27T16:35:08.695Z,1.63
2023-02-27T16:37:41.369Z,2.28
2023-02-27T16:40:18.713Z,1.83
2023-02-27T16:42:46.731Z,2.00
2023-02-27T16:45:16.593Z,2.55
2023-02-27T16:47:46.057Z,2.42
2023-02-27T16:50:36.640Z,2.20
2023-02-27T16:53:03.874Z,2.40
2023-02-27T16:55:33.410Z,2.50
2023-02-27T16:58:01.230Z,3.58
2023-02-27T17:00:29.489Z,3.30
2023-02-27T17:02:59.056Z,3.33
2023-02-27T17:05:27.912Z,2.95
2023-02-27T17:07:55.963Z,2.83
2023-02-27T17:10:25.482Z,3.35
2023-02-27T17:12:53.441Z,3.20
2023-02-27T17:15:23.341Z,3.83
2023-02-27T17:17:50.255Z,4.68
2023-02-27T17:20:21.741Z,3.88
2023-02-27T17:22:50.680Z,2.95
2023-02-27T17:25:18.143Z,2.55
2023-02-27T17:27:45.364Z,2.40
2023-02-27T17:30:14.677Z,2.60
2023-02-27T17:32:41.584Z,2.50
2023-02-27T17:37:42.273Z,2.58
2023-02-27T17:40:12.733Z,2.70
2023-02-27T17:42:40.161Z,4.25
2023-02-27T17:45:08.375Z,6.40
2023-02-27T17:47:36.065Z,5.65
2023-02-27T17:50:04.205Z,5.97
2023-02-27T17:52:31.187Z,5.22
2023-02-27T17:54:58.153Z,5.00
2023-02-27T17:59:51.977Z,3.05
2023-02-27T18:02:20.310Z,2.95
2023-02-27T18:04:47.700Z,2.60
2023-02-27T18:07:14.953Z,2.33
2023-02-27T18:09:41.707Z,2.58
2023-02-27T18:12:08.561Z,2.50
2023-02-27T18:14:37.025Z,2.63
2023-02-27T18:17:11.884Z,2.63
2023-02-27T18:19:41.730Z,2.50
2023-02-27T18:22:12.269Z,2.65
2023-02-27T18:24:40.891Z,3.08
2023-02-27T18:27:08.331Z,3.17
2023-02-27T18:29:36.519Z,4.20
2023-02-27T18:32:03.482Z,3.55
2023-02-27T18:34:30.539Z,4.53
2023-02-27T18:36:58.319Z,5.95
2023-02-27T18:39:25.575Z,4.43
2023-02-27T18:41:52.965Z,3.90
2023-02-27T18:44:22.502Z,3.63
2023-02-27T18:46:53.373Z,3.97
2023-02-27T18:49:20.378Z,3.50
2023-02-27T18:51:47.625Z,4.07
2023-02-27T18:54:15.004Z,3.90
2023-02-27T18:56:41.964Z,4.18
2023-02-27T18:59:08.791Z,3.90
2023-02-27T19:01:38.854Z,4.53
2023-02-27T19:04:08.200Z,3.92
2023-02-27T19:06:43.343Z,3.97
2023-02-27T19:09:19.909Z,3.97
2023-02-27T19:11:49.550Z,4.40
2023-02-27T19:14:17.316Z,4.00
2023-02-27T19:16:46.830Z,4.38
2023-02-27T19:19:13.663Z,4.38
2023-02-27T19:21:41.251Z,4.57
2023-02-27T19:24:11.065Z,4.88
2023-02-27T19:26:38.612Z,4.93
2023-02-27T19:29:07.298Z,4.85
2023-02-27T19:31:34.460Z,5.50
2023-02-27T19:34:01.996Z,5.55
2023-02-27T19:36:30.818Z,5.35
2023-02-27T19:38:58.664Z,5.43
2023-02-27T19:41:26.472Z,5.47
2023-02-27T19:43:54.574Z,5.40
2023-02-27T19:46:27.916Z,5.15
2023-02-27T19:48:58.097Z,5.03
2023-02-27T19:51:31.390Z,5.95
2023-02-27T19:53:59.493Z,6.30
2023-02-27T19:56:28.616Z,5.80
2023-02-27T19:58:55.707Z,5.78
2023-02-27T20:01:25.785Z,5.45
2023-02-27T20:03:53.169Z,6.93
2023-02-27T20:06:24.434Z,5.55
2023-02-27T20:08:56.162Z,5.95
2023-02-27T20:11:25.166Z,5.80
2023-02-27T20:13:52.201Z,4.93
2023-02-27T20:16:23.084Z,5.65
2023-02-27T20:19:01.613Z,6.45
2023-02-27T20:21:30.045Z,6.50
2023-02-27T20:23:59.462Z,5.35
2023-02-27T20:26:28.507Z,6.20
2023-02-27T20:28:59.716Z,6.00
2023-02-27T20:31:29.537Z,7.60
2023-02-27T20:33:59.116Z,5.72
2023-02-27T20:36:25.931Z,6.75
2023-02-27T20:38:52.761Z,7.47
2023-02-27T20:43:52.580Z,5.55
2023-02-27T20:46:24.553Z,5.32
2023-02-27T20:48:53.167Z,5.88
2023-02-27T20:51:24.684Z,6.13
2023-02-27T20:53:55.695Z,5.88
2023-02-27T20:56:34.800Z,6.38
2023-02-27T21:01:30.824Z,6.15
2023-02-27T21:03:59.804Z,5.35
2023-02-27T21:06:29.884Z,5.57
2023-02-27T21:08:57.303Z,5.22
2023-02-27T21:11:33.325Z,5.18
2023-02-27T21:14:05.965Z,4.75
2023-02-27T21:16:33.129Z,5.57
2023-02-27T21:19:03.916Z,4.93
2023-02-27T21:21:32.735Z,5.07
2023-02-27T21:24:00.614Z,5.25
2023-02-27T21:26:35.411Z,6.45
2023-02-27T21:29:07.023Z,5.93
2023-02-27T21:31:35.485Z,5.43
2023-02-27T21:34:05.841Z,6.38
2023-02-27T21:36:42.654Z,5.63
2023-02-27T21:39:14.644Z,6.22
2023-02-27T21:41:42.122Z,6.47
2023-02-27T21:44:12.491Z,6.20
2023-02-27T21:46:40.189Z,5.70
2023-02-27T21:49:06.941Z,6.82
2023-02-27T21:54:10.952Z,5.75
2023-02-27T21:56:39.683Z,6.13
2023-02-27T21:59:07.869Z,5.97
2023-02-27T22:01:35.954Z,6.70
2023-02-27T22:04:03.983Z,6.38
2023-02-27T22:06:33.088Z,6.53
2023-02-27T22:09:03.752Z,6.43
2023-02-27T22:11:32.740Z,5.97
2023-02-27T22:14:00.577Z,6.50
2023-02-27T22:16:27.902Z,5.93
2023-02-27T22:18:55.426Z,5.47
2023-02-27T22:21:25.580Z,6.53
2023-02-27T22:23:52.782Z,6.72
2023-02-27T22:26:26.122Z,6.57
2023-02-27T22:28:59.120Z,6.60
2023-02-27T22:34:02.509Z,5.90
2023-02-27T22:36:31.522Z,6.88
2023-02-27T22:39:02.362Z,6.28
2023-02-27T22:41:36.842Z,7.32
2023-02-27T22:44:04.544Z,7.03
2023-02-27T22:46:34.462Z,6.63
2023-02-27T22:49:04.852Z,6.60
2023-02-27T22:51:32.696Z,6.68
2023-02-27T22:54:03.123Z,7.20
2023-02-27T22:56:31.410Z,6.22
2023-02-27T22:59:03.576Z,5.68
2023-02-27T23:01:32.945Z,7.13
2023-02-27T23:04:09.035Z,7.10
2023-02-27T23:06:39.498Z,7.70
2023-02-27T23:09:08.665Z,7.28
2023-02-27T23:11:35.491Z,7.55
2023-02-27T23:14:02.423Z,6.68
2023-02-27T23:18:58.621Z,6.63
2023-02-27T23:21:34.546Z,6.32
2023-02-27T23:24:07.037Z,7.22
2023-02-27T23:26:39.612Z,6.70
2023-02-27T23:29:07.123Z,7.50
2023-02-27T23:31:35.795Z,7.25
2023-02-27T23:34:05.837Z,6.57
2023-02-27T23:36:34.273Z,6.20
2023-02-27T23:39:02.947Z,6.57
2023-02-27T23:41:30.912Z,6.25
2023-02-27T23:44:16.840Z,6.75
2023-02-27T23:46:44.587Z,6.28
2023-02-27T23:49:11.666Z,6.43
2023-02-27T23:51:38.718Z,7.18
2023-02-27T23:56:32.644Z,5.63
